sensor_id;sensor_type;location;lat;lon;timestamp;P1;durP1;ratioP1;P2;durP2;ratioP2
18144;SDS011;14857;41.200;-8.326;2022-09-09T00:02:02;27.33;;;11.40;;
18144;SDS011;14857;41.200;-8.326;2022-09-09T00:04:39;25.38;;;11.07;;
18144;SDS011;14857;41.200;-8.326;2022-09-09T00:07:10;29.88;;;11.40;;
18144;SDS011;14857;41.200;-8.326;2022-09-09T00:09:45;22.27;;;10.10;;
18144;SDS011;14857;41.200;-8.326;2022-09-09T00:12:18;24.13;;;10.55;;
18144;SDS011;14857;41.200;-8.326;2022-09-09T00:15:05;29.33;;;10.82;;
18144;SDS011;14857;41.200;-8.326;2022-09-09T00:17:42;26.23;;;10.07;;
18144;SDS011;14857;41.200;-8.326;2022-09-09T00:20:16;27.10;;;11.32;;
18144;SDS011;14857;41.200;-8.326;2022-09-09T00:22:57;28.35;;;11.98;;
18144;SDS011;14857;41.200;-8.326;2022-09-09T00:25:34;29.73;;;12.55;;
18144;SDS011;14857;41.200;-8.326;2022-09-09T00:28:13;38.30;;;14.68;;
18144;SDS011;14857;41.200;-8.326;2022-09-09T00:30:47;32.30;;;13.73;;
18144;SDS011;14857;41.200;-8.326;2022-09-09T00:33:17;35.30;;;14.75;;
18144;SDS011;14857;41.200;-8.326;2022-09-09T00:35:49;32.55;;;13.85;;
18144;SDS011;14857;41.200;-8.326;2022-09-09T00:38:21;37.13;;;14.27;;
18144;SDS011;14857;41.200;-8.326;2022-09-09T00:40:53;32.55;;;13.52;;
18144;SDS011;14857;41.200;-8.326;2022-09-09T00:43:29;31.48;;;13.32;;
18144;SDS011;14857;41.200;-8.326;2022-09-09T00:46:05;29.63;;;13.30;;
18144;SDS011;14857;41.200;-8.326;2022-09-09T00:48:52;36.42;;;13.20;;
18144;SDS011;14857;41.200;-8.326;2022-09-09T00:51:30;36.33;;;13.57;;
18144;SDS011;14857;41.200;-8.326;2022-09-09T00:54:17;29.52;;;12.82;;
18144;SDS011;14857;41.200;-8.326;2022-09-09T00:57:02;38.13;;;13.95;;
18144;SDS011;14857;41.200;-8.326;2022-09-09T00:59:42;36.47;;;14.48;;
18144;SDS011;14857;41.200;-8.326;2022-09-09T01:02:18;35.67;;;14.43;;
18144;SDS011;14857;41.200;-8.326;2022-09-09T01:04:57;34.13;;;13.00;;
18144;SDS011;14857;41.200;-8.326;2022-09-09T01:07:33;36.17;;;12.05;;
18144;SDS011;14857;41.200;-8.326;2022-09-09T01:10:03;25.05;;;11.45;;
18144;SDS011;14857;41.200;-8.326;2022-09-09T01:12:40;31.48;;;12.50;;
18144;SDS011;14857;41.200;-8.326;2022-09-09T01:15:17;26.67;;;11.40;;
18144;SDS011;14857;41.200;-8.326;2022-09-09T01:17:55;28.42;;;12.10;;
18144;SDS011;14857;41.200;-8.326;2022-09-09T01:20:31;28.48;;;12.10;;
18144;SDS011;14857;41.200;-8.326;2022-09-09T01:23:21;28.08;;;12.07;;
18144;SDS011;14857;41.200;-8.326;2022-09-09T01:26:18;35.47;;;14.30;;
18144;SDS011;14857;41.200;-8.326;2022-09-09T01:28:51;42.13;;;14.65;;
18144;SDS011;14857;41.200;-8.326;2022-09-09T01:31:29;35.88;;;15.95;;
18144;SDS011;14857;41.200;-8.326;2022-09-09T01:34:01;38.00;;;15.52;;
18144;SDS011;14857;41.200;-8.326;2022-09-09T01:36:31;36.65;;;14.25;;
18144;SDS011;14857;41.200;-8.326;2022-09-09T01:39:06;37.35;;;16.02;;
18144;SDS011;14857;41.200;-8.326;2022-09-09T01:41:37;43.15;;;15.95;;
18144;SDS011;14857;41.200;-8.326;2022-09-09T01:44:10;36.63;;;14.63;;
18144;SDS011;14857;41.200;-8.326;2022-09-09T01:46:43;39.55;;;16.20;;
18144;SDS011;14857;41.200;-8.326;2022-09-09T01:49:17;40.42;;;16.95;;
18144;SDS011;14857;41.200;-8.326;2022-09-09T01:51:46;44.08;;;17.67;;
18144;SDS011;14857;41.200;-8.326;2022-09-09T01:54:22;44.92;;;17.27;;
18144;SDS011;14857;41.200;-8.326;2022-09-09T01:56:59;52.00;;;17.77;;
18144;SDS011;14857;41.200;-8.326;2022-09-09T01:59:45;49.92;;;17.75;;
18144;SDS011;14857;41.200;-8.326;2022-09-09T02:02:22;41.20;;;15.50;;
18144;SDS011;14857;41.200;-8.326;2022-09-09T02:05:12;45.28;;;17.27;;
18144;SDS011;14857;41.200;-8.326;2022-09-09T02:07:53;49.10;;;17.42;;
18144;SDS011;14857;41.200;-8.326;2022-09-09T02:10:37;47.35;;;16.15;;
18144;SDS011;14857;41.200;-8.326;2022-09-09T02:13:23;44.63;;;17.70;;
18144;SDS011;14857;41.200;-8.326;2022-09-09T02:15:55;47.83;;;17.17;;
18144;SDS011;14857;41.200;-8.326;2022-09-09T02:18:29;44.10;;;16.40;;
18144;SDS011;14857;41.200;-8.326;2022-09-09T02:21:03;42.03;;;15.35;;
18144;SDS011;14857;41.200;-8.326;2022-09-09T02:23:34;46.83;;;15.30;;
18144;SDS011;14857;41.200;-8.326;2022-09-09T02:26:08;45.65;;;15.10;;
18144;SDS011;14857;41.200;-8.326;2022-09-09T02:28:51;45.33;;;14.07;;
18144;SDS011;14857;41.200;-8.326;2022-09-09T02:31:23;38.67;;;14.30;;
18144;SDS011;14857;41.200;-8.326;2022-09-09T02:33:59;44.72;;;16.02;;
18144;SDS011;14857;41.200;-8.326;2022-09-09T02:36:31;41.60;;;14.30;;
18144;SDS011;14857;41.200;-8.326;2022-09-09T02:39:02;42.63;;;14.77;;
18144;SDS011;14857;41.200;-8.326;2022-09-09T02:41:36;36.33;;;13.05;;
18144;SDS011;14857;41.200;-8.326;2022-09-09T02:44:10;40.38;;;14.95;;
18144;SDS011;14857;41.200;-8.326;2022-09-09T02:46:44;43.55;;;16.27;;
18144;SDS011;14857;41.200;-8.326;2022-09-09T02:49:27;49.30;;;15.68;;
18144;SDS011;14857;41.200;-8.326;2022-09-09T02:52:04;47.40;;;16.65;;
18144;SDS011;14857;41.200;-8.326;2022-09-09T02:54:37;50.45;;;18.58;;
18144;SDS011;14857;41.200;-8.326;2022-09-09T02:57:11;54.40;;;17.50;;
18144;SDS011;14857;41.200;-8.326;2022-09-09T02:59:47;44.63;;;15.65;;
18144;SDS011;14857;41.200;-8.326;2022-09-09T03:02:18;52.42;;;16.77;;
18144;SDS011;14857;41.200;-8.326;2022-09-09T03:04:53;48.20;;;15.40;;
18144;SDS011;14857;41.200;-8.326;2022-09-09T03:07:21;52.60;;;16.35;;
18144;SDS011;14857;41.200;-8.326;2022-09-09T03:09:51;50.45;;;15.25;;
18144;SDS011;14857;41.200;-8.326;2022-09-09T03:12:24;48.22;;;15.18;;
18144;SDS011;14857;41.200;-8.326;2022-09-09T03:14:54;43.67;;;14.70;;
18144;SDS011;14857;41.200;-8.326;2022-09-09T03:17:24;49.60;;;13.52;;
18144;SDS011;14857;41.200;-8.326;2022-09-09T03:19:56;45.92;;;13.73;;
18144;SDS011;14857;41.200;-8.326;2022-09-09T03:22:25;41.17;;;13.57;;
18144;SDS011;14857;41.200;-8.326;2022-09-09T03:24:57;37.33;;;12.95;;
18144;SDS011;14857;41.200;-8.326;2022-09-09T03:27:25;47.63;;;15.13;;
18144;SDS011;14857;41.200;-8.326;2022-09-09T03:29:56;45.33;;;13.32;;
18144;SDS011;14857;41.200;-8.326;2022-09-09T03:32:24;36.22;;;11.65;;
18144;SDS011;14857;41.200;-8.326;2022-09-09T03:34:55;41.05;;;12.30;;
18144;SDS011;14857;41.200;-8.326;2022-09-09T03:37:24;39.92;;;12.05;;
18144;SDS011;14857;41.200;-8.326;2022-09-09T03:39:53;32.30;;;11.32;;
18144;SDS011;14857;41.200;-8.326;2022-09-09T03:42:22;33.95;;;11.48;;
18144;SDS011;14857;41.200;-8.326;2022-09-09T03:44:53;28.38;;;10.77;;
18144;SDS011;14857;41.200;-8.326;2022-09-09T03:47:26;31.65;;;10.95;;
18144;SDS011;14857;41.200;-8.326;2022-09-09T03:50:03;35.03;;;10.35;;
18144;SDS011;14857;41.200;-8.326;2022-09-09T03:52:36;33.50;;;11.70;;
18144;SDS011;14857;41.200;-8.326;2022-09-09T03:55:08;33.88;;;11.20;;
18144;SDS011;14857;41.200;-8.326;2022-09-09T03:57:36;31.98;;;11.20;;
18144;SDS011;14857;41.200;-8.326;2022-09-09T04:00:08;29.70;;;10.48;;
18144;SDS011;14857;41.200;-8.326;2022-09-09T04:05:43;28.08;;;9.90;;
18144;SDS011;14857;41.200;-8.326;2022-09-09T04:08:12;29.00;;;10.77;;
18144;SDS011;14857;41.200;-8.326;2022-09-09T04:10:41;26.10;;;10.20;;
18144;SDS011;14857;41.200;-8.326;2022-09-09T04:13:13;25.98;;;10.38;;
18144;SDS011;14857;41.200;-8.326;2022-09-09T04:15:43;28.88;;;10.05;;
18144;SDS011;14857;41.200;-8.326;2022-09-09T04:18:11;32.50;;;10.45;;
18144;SDS011;14857;41.200;-8.326;2022-09-09T04:20:47;35.92;;;12.13;;
18144;SDS011;14857;41.200;-8.326;2022-09-09T04:23:19;30.15;;;10.85;;
18144;SDS011;14857;41.200;-8.326;2022-09-09T04:25:49;32.65;;;11.82;;
18144;SDS011;14857;41.200;-8.326;2022-09-09T04:28:19;35.92;;;11.00;;
18144;SDS011;14857;41.200;-8.326;2022-09-09T04:30:50;33.33;;;11.25;;
18144;SDS011;14857;41.200;-8.326;2022-09-09T04:33:19;26.23;;;10.63;;
18144;SDS011;14857;41.200;-8.326;2022-09-09T04:35:51;34.05;;;11.73;;
18144;SDS011;14857;41.200;-8.326;2022-09-09T04:38:24;34.13;;;12.00;;
18144;SDS011;14857;41.200;-8.326;2022-09-09T04:40:54;35.97;;;12.30;;
18144;SDS011;14857;41.200;-8.326;2022-09-09T04:43:24;29.80;;;11.73;;
18144;SDS011;14857;41.200;-8.326;2022-09-09T04:45:58;26.45;;;12.35;;
18144;SDS011;14857;41.200;-8.326;2022-09-09T04:48:27;23.55;;;11.60;;
18144;SDS011;14857;41.200;-8.326;2022-09-09T04:50:57;35.10;;;11.70;;
18144;SDS011;14857;41.200;-8.326;2022-09-09T04:53:29;29.40;;;12.57;;
18144;SDS011;14857;41.200;-8.326;2022-09-09T04:56:02;25.52;;;12.10;;
18144;SDS011;14857;41.200;-8.326;2022-09-09T04:58:35;25.08;;;11.73;;
18144;SDS011;14857;41.200;-8.326;2022-09-09T05:01:06;27.27;;;12.38;;
18144;SDS011;14857;41.200;-8.326;2022-09-09T05:03:37;29.35;;;12.18;;
18144;SDS011;14857;41.200;-8.326;2022-09-09T05:06:10;27.65;;;11.98;;
18144;SDS011;14857;41.200;-8.326;2022-09-09T05:08:41;26.27;;;11.80;;
18144;SDS011;14857;41.200;-8.326;2022-09-09T05:11:18;27.92;;;11.95;;
18144;SDS011;14857;41.200;-8.326;2022-09-09T05:13:48;34.65;;;13.40;;
18144;SDS011;14857;41.200;-8.326;2022-09-09T05:16:18;30.17;;;12.35;;
18144;SDS011;14857;41.200;-8.326;2022-09-09T05:18:49;37.13;;;13.68;;
18144;SDS011;14857;41.200;-8.326;2022-09-09T05:21:21;29.77;;;12.80;;
18144;SDS011;14857;41.200;-8.326;2022-09-09T05:23:51;41.45;;;13.23;;
18144;SDS011;14857;41.200;-8.326;2022-09-09T05:26:20;32.47;;;11.95;;
18144;SDS011;14857;41.200;-8.326;2022-09-09T05:28:52;27.77;;;11.98;;
18144;SDS011;14857;41.200;-8.326;2022-09-09T05:31:21;32.45;;;12.18;;
18144;SDS011;14857;41.200;-8.326;2022-09-09T05:33:52;32.72;;;11.38;;
18144;SDS011;14857;41.200;-8.326;2022-09-09T05:36:22;26.73;;;11.70;;
18144;SDS011;14857;41.200;-8.326;2022-09-09T05:38:54;26.67;;;11.80;;
18144;SDS011;14857;41.200;-8.326;2022-09-09T05:41:25;28.08;;;11.35;;
18144;SDS011;14857;41.200;-8.326;2022-09-09T05:43:57;26.25;;;11.40;;
18144;SDS011;14857;41.200;-8.326;2022-09-09T05:46:28;28.75;;;12.30;;
18144;SDS011;14857;41.200;-8.326;2022-09-09T05:48:56;27.60;;;11.75;;
18144;SDS011;14857;41.200;-8.326;2022-09-09T05:51:30;29.60;;;11.32;;
18144;SDS011;14857;41.200;-8.326;2022-09-09T05:54:04;28.58;;;11.80;;
18144;SDS011;14857;41.200;-8.326;2022-09-09T05:56:36;24.80;;;10.82;;
18144;SDS011;14857;41.200;-8.326;2022-09-09T05:59:06;26.83;;;10.65;;
18144;SDS011;14857;41.200;-8.326;2022-09-09T06:01:37;22.55;;;10.43;;
18144;SDS011;14857;41.200;-8.326;2022-09-09T06:04:10;27.30;;;10.98;;
18144;SDS011;14857;41.200;-8.326;2022-09-09T06:06:41;21.88;;;9.77;;
18144;SDS011;14857;41.200;-8.326;2022-09-09T06:09:16;26.13;;;10.23;;
18144;SDS011;14857;41.200;-8.326;2022-09-09T06:11:44;19.33;;;8.50;;
18144;SDS011;14857;41.200;-8.326;2022-09-09T06:14:14;22.52;;;8.73;;
18144;SDS011;14857;41.200;-8.326;2022-09-09T06:16:47;18.38;;;9.05;;
18144;SDS011;14857;41.200;-8.326;2022-09-09T06:19:23;19.38;;;9.27;;
18144;SDS011;14857;41.200;-8.326;2022-09-09T06:21:57;18.48;;;8.80;;
18144;SDS011;14857;41.200;-8.326;2022-09-09T06:24:28;18.33;;;9.23;;
18144;SDS011;14857;41.200;-8.326;2022-09-09T06:26:59;18.50;;;9.48;;
18144;SDS011;14857;41.200;-8.326;2022-09-09T06:29:32;19.88;;;9.85;;
18144;SDS011;14857;41.200;-8.326;2022-09-09T06:32:02;19.50;;;9.07;;
18144;SDS011;14857;41.200;-8.326;2022-09-09T06:34:31;19.92;;;9.73;;
18144;SDS011;14857;41.200;-8.326;2022-09-09T06:37:01;17.20;;;9.00;;
18144;SDS011;14857;41.200;-8.326;2022-09-09T06:39:41;19.70;;;9.48;;
18144;SDS011;14857;41.200;-8.326;2022-09-09T06:42:10;15.93;;;9.05;;
18144;SDS011;14857;41.200;-8.326;2022-09-09T06:44:49;18.85;;;8.70;;
18144;SDS011;14857;41.200;-8.326;2022-09-09T06:47:45;16.35;;;7.80;;
18144;SDS011;14857;41.200;-8.326;2022-09-09T06:50:14;13.80;;;7.40;;
18144;SDS011;14857;41.200;-8.326;2022-09-09T06:52:47;12.70;;;7.07;;
18144;SDS011;14857;41.200;-8.326;2022-09-09T06:55:15;15.75;;;6.80;;
18144;SDS011;14857;41.200;-8.326;2022-09-09T06:57:44;16.83;;;7.30;;
18144;SDS011;14857;41.200;-8.326;2022-09-09T07:00:18;12.63;;;6.75;;
18144;SDS011;14857;41.200;-8.326;2022-09-09T07:02:46;12.20;;;6.30;;
18144;SDS011;14857;41.200;-8.326;2022-09-09T07:05:18;11.88;;;6.07;;
18144;SDS011;14857;41.200;-8.326;2022-09-09T07:07:49;13.90;;;6.07;;
18144;SDS011;14857;41.200;-8.326;2022-09-09T07:10:19;10.65;;;5.80;;
18144;SDS011;14857;41.200;-8.326;2022-09-09T07:12:50;15.15;;;7.15;;
18144;SDS011;14857;41.200;-8.326;2022-09-09T07:15:21;18.77;;;6.30;;
18144;SDS011;14857;41.200;-8.326;2022-09-09T07:17:50;11.40;;;6.25;;
18144;SDS011;14857;41.200;-8.326;2022-09-09T07:20:20;12.45;;;7.43;;
18144;SDS011;14857;41.200;-8.326;2022-09-09T07:22:51;12.80;;;6.53;;
18144;SDS011;14857;41.200;-8.326;2022-09-09T07:25:23;11.80;;;6.40;;
18144;SDS011;14857;41.200;-8.326;2022-09-09T07:27:53;10.45;;;6.43;;
18144;SDS011;14857;41.200;-8.326;2022-09-09T07:30:21;12.27;;;6.57;;
18144;SDS011;14857;41.200;-8.326;2022-09-09T07:32:54;10.52;;;5.80;;
18144;SDS011;14857;41.200;-8.326;2022-09-09T07:35:24;11.95;;;6.72;;
18144;SDS011;14857;41.200;-8.326;2022-09-09T07:37:55;11.65;;;5.95;;
18144;SDS011;14857;41.200;-8.326;2022-09-09T07:40:25;9.43;;;6.15;;
18144;SDS011;14857;41.200;-8.326;2022-09-09T07:42:53;14.52;;;7.50;;
18144;SDS011;14857;41.200;-8.326;2022-09-09T07:45:22;12.77;;;6.40;;
18144;SDS011;14857;41.200;-8.326;2022-09-09T07:47:51;11.35;;;6.15;;
18144;SDS011;14857;41.200;-8.326;2022-09-09T07:50:20;12.80;;;6.93;;
18144;SDS011;14857;41.200;-8.326;2022-09-09T07:52:49;12.23;;;6.88;;
18144;SDS011;14857;41.200;-8.326;2022-09-09T07:55:21;10.85;;;6.53;;
18144;SDS011;14857;41.200;-8.326;2022-09-09T07:57:52;9.45;;;5.68;;
18144;SDS011;14857;41.200;-8.326;2022-09-09T08:00:22;13.40;;;6.35;;
18144;SDS011;14857;41.200;-8.326;2022-09-09T08:02:55;12.00;;;7.05;;
18144;SDS011;14857;41.200;-8.326;2022-09-09T08:05:23;11.23;;;6.50;;
18144;SDS011;14857;41.200;-8.326;2022-09-09T08:07:52;9.77;;;6.28;;
18144;SDS011;14857;41.200;-8.326;2022-09-09T08:10:22;12.05;;;6.47;;
18144;SDS011;14857;41.200;-8.326;2022-09-09T08:12:53;29.15;;;7.80;;
18144;SDS011;14857;41.200;-8.326;2022-09-09T08:15:42;20.77;;;11.10;;
18144;SDS011;14857;41.200;-8.326;2022-09-09T08:18:11;15.48;;;6.35;;
18144;SDS011;14857;41.200;-8.326;2022-09-09T08:20:40;30.27;;;13.88;;
18144;SDS011;14857;41.200;-8.326;2022-09-09T08:23:09;44.05;;;22.88;;
18144;SDS011;14857;41.200;-8.326;2022-09-09T08:25:39;13.30;;;7.55;;
18144;SDS011;14857;41.200;-8.326;2022-09-09T08:28:08;12.43;;;6.90;;
18144;SDS011;14857;41.200;-8.326;2022-09-09T08:30:37;11.27;;;5.55;;
18144;SDS011;14857;41.200;-8.326;2022-09-09T08:33:06;10.05;;;5.97;;
18144;SDS011;14857;41.200;-8.326;2022-09-09T08:35:34;9.73;;;5.55;;
18144;SDS011;14857;41.200;-8.326;2022-09-09T08:38:03;8.93;;;5.28;;
18144;SDS011;14857;41.200;-8.326;2022-09-09T08:40:37;7.53;;;4.63;;
18144;SDS011;14857;41.200;-8.326;2022-09-09T08:43:13;29.17;;;5.50;;
18144;SDS011;14857;41.200;-8.326;2022-09-09T08:45:46;7.05;;;4.15;;
18144;SDS011;14857;41.200;-8.326;2022-09-09T08:48:29;22.48;;;6.72;;
18144;SDS011;14857;41.200;-8.326;2022-09-09T08:51:10;8.68;;;2.58;;
18144;SDS011;14857;41.200;-8.326;2022-09-09T08:53:41;8.25;;;2.90;;
18144;SDS011;14857;41.200;-8.326;2022-09-09T08:56:15;75.95;;;35.28;;
18144;SDS011;14857;41.200;-8.326;2022-09-09T08:58:50;22.20;;;12.50;;
18144;SDS011;14857;41.200;-8.326;2022-09-09T09:04:50;2.97;;;1.75;;
18144;SDS011;14857;41.200;-8.326;2022-09-09T09:07:36;2.70;;;2.05;;
18144;SDS011;14857;41.200;-8.326;2022-09-09T09:10:19;3.78;;;2.10;;
18144;SDS011;14857;41.200;-8.326;2022-09-09T09:13:15;11.10;;;5.90;;
18144;SDS011;14857;41.200;-8.326;2022-09-09T09:15:46;8.05;;;3.28;;
18144;SDS011;14857;41.200;-8.326;2022-09-09T09:18:20;4.30;;;2.90;;
18144;SDS011;14857;41.200;-8.326;2022-09-09T09:20:50;6.28;;;2.05;;
18144;SDS011;14857;41.200;-8.326;2022-09-09T09:23:29;4.07;;;2.05;;
18144;SDS011;14857;41.200;-8.326;2022-09-09T09:26:06;6.22;;;3.60;;
18144;SDS011;14857;41.200;-8.326;2022-09-09T09:28:39;9.60;;;5.32;;
18144;SDS011;14857;41.200;-8.326;2022-09-09T09:31:13;9.93;;;4.78;;
18144;SDS011;14857;41.200;-8.326;2022-09-09T09:33:47;11.70;;;5.55;;
18144;SDS011;14857;41.200;-8.326;2022-09-09T09:36:19;7.95;;;4.13;;
18144;SDS011;14857;41.200;-8.326;2022-09-09T09:38:52;5.28;;;2.55;;
18144;SDS011;14857;41.200;-8.326;2022-09-09T09:41:44;3.55;;;1.90;;
18144;SDS011;14857;41.200;-8.326;2022-09-09T09:44:25;2.53;;;2.17;;
18144;SDS011;14857;41.200;-8.326;2022-09-09T09:47:07;24.92;;;15.55;;
18144;SDS011;14857;41.200;-8.326;2022-09-09T09:49:50;22.08;;;11.50;;
18144;SDS011;14857;41.200;-8.326;2022-09-09T09:52:21;2.70;;;2.38;;
18144;SDS011;14857;41.200;-8.326;2022-09-09T09:54:52;4.28;;;2.67;;
18144;SDS011;14857;41.200;-8.326;2022-09-09T09:57:22;3.75;;;2.67;;
18144;SDS011;14857;41.200;-8.326;2022-09-09T10:00:04;4.25;;;2.20;;
18144;SDS011;14857;41.200;-8.326;2022-09-09T10:02:42;6.40;;;1.98;;
18144;SDS011;14857;41.200;-8.326;2022-09-09T10:05:18;22.00;;;12.45;;
18144;SDS011;14857;41.200;-8.326;2022-09-09T10:08:00;3.75;;;2.00;;
18144;SDS011;14857;41.200;-8.326;2022-09-09T10:10:34;4.07;;;1.58;;
18144;SDS011;14857;41.200;-8.326;2022-09-09T10:13:15;2.47;;;2.05;;
18144;SDS011;14857;41.200;-8.326;2022-09-09T10:15:56;3.33;;;1.42;;
18144;SDS011;14857;41.200;-8.326;2022-09-09T10:18:36;3.10;;;1.50;;
18144;SDS011;14857;41.200;-8.326;2022-09-09T10:21:16;6.22;;;2.10;;
18144;SDS011;14857;41.200;-8.326;2022-09-09T10:27:05;3.22;;;1.73;;
18144;SDS011;14857;41.200;-8.326;2022-09-09T10:29:47;7.53;;;3.65;;
18144;SDS011;14857;41.200;-8.326;2022-09-09T10:35:24;5.88;;;2.65;;
18144;SDS011;14857;41.200;-8.326;2022-09-09T10:40:47;2.30;;;1.50;;
18144;SDS011;14857;41.200;-8.326;2022-09-09T10:43:32;2.05;;;1.40;;
18144;SDS011;14857;41.200;-8.326;2022-09-09T10:46:20;2.38;;;1.65;;
18144;SDS011;14857;41.200;-8.326;2022-09-09T10:49:01;4.07;;;1.65;;
18144;SDS011;14857;41.200;-8.326;2022-09-09T10:51:40;5.07;;;1.90;;
18144;SDS011;14857;41.200;-8.326;2022-09-09T10:54:21;3.15;;;2.00;;
18144;SDS011;14857;41.200;-8.326;2022-09-09T10:56:58;6.80;;;2.22;;
18144;SDS011;14857;41.200;-8.326;2022-09-09T10:59:33;2.80;;;1.70;;
18144;SDS011;14857;41.200;-8.326;2022-09-09T11:02:10;2.95;;;1.80;;
18144;SDS011;14857;41.200;-8.326;2022-09-09T11:04:49;2.75;;;1.35;;
18144;SDS011;14857;41.200;-8.326;2022-09-09T11:07:25;2.33;;;1.65;;
18144;SDS011;14857;41.200;-8.326;2022-09-09T11:09:59;2.13;;;1.60;;
18144;SDS011;14857;41.200;-8.326;2022-09-09T11:12:34;3.70;;;1.75;;
18144;SDS011;14857;41.200;-8.326;2022-09-09T11:15:06;2.95;;;1.60;;
18144;SDS011;14857;41.200;-8.326;2022-09-09T11:17:43;5.47;;;3.70;;
18144;SDS011;14857;41.200;-8.326;2022-09-09T11:20:17;2.30;;;1.90;;
18144;SDS011;14857;41.200;-8.326;2022-09-09T11:22:47;4.38;;;1.83;;
18144;SDS011;14857;41.200;-8.326;2022-09-09T11:25:20;2.85;;;1.40;;
18144;SDS011;14857;41.200;-8.326;2022-09-09T11:27:57;3.15;;;1.35;;
18144;SDS011;14857;41.200;-8.326;2022-09-09T11:30:45;1.92;;;1.33;;
18144;SDS011;14857;41.200;-8.326;2022-09-09T11:33:41;1.05;;;0.90;;
18144;SDS011;14857;41.200;-8.326;2022-09-09T11:39:32;1.38;;;1.05;;
18144;SDS011;14857;41.200;-8.326;2022-09-09T11:42:20;1.20;;;0.88;;
18144;SDS011;14857;41.200;-8.326;2022-09-09T11:44:50;2.35;;;1.20;;
18144;SDS011;14857;41.200;-8.326;2022-09-09T11:47:21;2.03;;;1.30;;
18144;SDS011;14857;41.200;-8.326;2022-09-09T11:50:06;1.10;;;1.00;;
18144;SDS011;14857;41.200;-8.326;2022-09-09T11:52:38;1.95;;;1.23;;
18144;SDS011;14857;41.200;-8.326;2022-09-09T11:55:25;2.47;;;0.90;;
18144;SDS011;14857;41.200;-8.326;2022-09-09T11:57:58;1.40;;;1.05;;
18144;SDS011;14857;41.200;-8.326;2022-09-09T12:00:29;1.52;;;1.27;;
18144;SDS011;14857;41.200;-8.326;2022-09-09T12:03:01;3.13;;;1.30;;
18144;SDS011;14857;41.200;-8.326;2022-09-09T12:05:37;3.42;;;1.25;;
18144;SDS011;14857;41.200;-8.326;2022-09-09T12:08:11;1.27;;;1.10;;
18144;SDS011;14857;41.200;-8.326;2022-09-09T12:10:52;1.92;;;1.00;;
18144;SDS011;14857;41.200;-8.326;2022-09-09T12:13:24;2.00;;;1.10;;
18144;SDS011;14857;41.200;-8.326;2022-09-09T12:15:55;3.67;;;1.30;;
18144;SDS011;14857;41.200;-8.326;2022-09-09T12:18:26;4.25;;;1.10;;
18144;SDS011;14857;41.200;-8.326;2022-09-09T12:21:03;5.50;;;1.48;;
18144;SDS011;14857;41.200;-8.326;2022-09-09T12:23:38;1.50;;;0.95;;
18144;SDS011;14857;41.200;-8.326;2022-09-09T12:26:28;1.08;;;0.98;;
18144;SDS011;14857;41.200;-8.326;2022-09-09T12:29:05;1.27;;;1.08;;
18144;SDS011;14857;41.200;-8.326;2022-09-09T12:31:44;2.35;;;1.65;;
18144;SDS011;14857;41.200;-8.326;2022-09-09T12:34:23;1.35;;;1.10;;
18144;SDS011;14857;41.200;-8.326;2022-09-09T12:37:02;1.73;;;1.33;;
18144;SDS011;14857;41.200;-8.326;2022-09-09T12:39:36;1.67;;;1.30;;
18144;SDS011;14857;41.200;-8.326;2022-09-09T12:42:18;2.05;;;1.40;;
18144;SDS011;14857;41.200;-8.326;2022-09-09T12:44:52;2.17;;;1.70;;
18144;SDS011;14857;41.200;-8.326;2022-09-09T12:47:23;2.03;;;1.73;;
18144;SDS011;14857;41.200;-8.326;2022-09-09T12:49:57;4.15;;;1.92;;
18144;SDS011;14857;41.200;-8.326;2022-09-09T12:52:30;3.03;;;2.00;;
18144;SDS011;14857;41.200;-8.326;2022-09-09T12:55:03;3.40;;;2.15;;
18144;SDS011;14857;41.200;-8.326;2022-09-09T12:57:35;3.03;;;1.83;;
18144;SDS011;14857;41.200;-8.326;2022-09-09T13:00:10;4.82;;;2.97;;
18144;SDS011;14857;41.200;-8.326;2022-09-09T13:02:47;2.72;;;1.98;;
18144;SDS011;14857;41.200;-8.326;2022-09-09T13:05:19;3.45;;;2.15;;
18144;SDS011;14857;41.200;-8.326;2022-09-09T13:07:49;6.38;;;2.40;;
18144;SDS011;14857;41.200;-8.326;2022-09-09T13:10:22;2.08;;;1.88;;
18144;SDS011;14857;41.200;-8.326;2022-09-09T13:13:02;6.30;;;2.03;;
18144;SDS011;14857;41.200;-8.326;2022-09-09T13:15:31;6.78;;;2.47;;
18144;SDS011;14857;41.200;-8.326;2022-09-09T13:18:01;3.78;;;2.47;;
18144;SDS011;14857;41.200;-8.326;2022-09-09T13:20:35;3.60;;;2.00;;
18144;SDS011;14857;41.200;-8.326;2022-09-09T13:23:03;4.20;;;2.33;;
18144;SDS011;14857;41.200;-8.326;2022-09-09T13:25:33;4.00;;;2.00;;
18144;SDS011;14857;41.200;-8.326;2022-09-09T13:28:18;6.40;;;2.38;;
18144;SDS011;14857;41.200;-8.326;2022-09-09T13:30:55;23.50;;;10.57;;
18144;SDS011;14857;41.200;-8.326;2022-09-09T13:33:30;11.98;;;3.28;;
18144;SDS011;14857;41.200;-8.326;2022-09-09T13:36:01;4.07;;;2.00;;
18144;SDS011;14857;41.200;-8.326;2022-09-09T13:38:33;3.08;;;2.30;;
18144;SDS011;14857;41.200;-8.326;2022-09-09T13:41:06;3.35;;;1.75;;
18144;SDS011;14857;41.200;-8.326;2022-09-09T13:43:41;1.77;;;1.45;;
18144;SDS011;14857;41.200;-8.326;2022-09-09T13:46:25;2.53;;;1.73;;
18144;SDS011;14857;41.200;-8.326;2022-09-09T13:48:58;2.35;;;1.55;;
18144;SDS011;14857;41.200;-8.326;2022-09-09T13:51:35;5.70;;;1.60;;
18144;SDS011;14857;41.200;-8.326;2022-09-09T13:54:06;6.85;;;2.33;;
18144;SDS011;14857;41.200;-8.326;2022-09-09T13:56:39;8.45;;;3.33;;
18144;SDS011;14857;41.200;-8.326;2022-09-09T13:59:10;15.23;;;7.97;;
18144;SDS011;14857;41.200;-8.326;2022-09-09T14:01:40;16.98;;;9.20;;
18144;SDS011;14857;41.200;-8.326;2022-09-09T14:04:10;18.35;;;9.27;;
18144;SDS011;14857;41.200;-8.326;2022-09-09T14:06:39;64.38;;;6.93;;
18144;SDS011;14857;41.200;-8.326;2022-09-09T14:09:10;3.70;;;2.15;;
18144;SDS011;14857;41.200;-8.326;2022-09-09T14:11:41;5.95;;;3.38;;
18144;SDS011;14857;41.200;-8.326;2022-09-09T14:14:10;14.63;;;5.25;;
18144;SDS011;14857;41.200;-8.326;2022-09-09T14:16:39;9.27;;;5.72;;
18144;SDS011;14857;41.200;-8.326;2022-09-09T14:19:07;12.50;;;6.63;;
18144;SDS011;14857;41.200;-8.326;2022-09-09T14:21:36;23.08;;;6.60;;
18144;SDS011;14857;41.200;-8.326;2022-09-09T14:24:05;12.27;;;6.85;;
18144;SDS011;14857;41.200;-8.326;2022-09-09T14:26:34;10.80;;;6.25;;
18144;SDS011;14857;41.200;-8.326;2022-09-09T14:29:04;14.57;;;6.13;;
18144;SDS011;14857;41.200;-8.326;2022-09-09T14:31:32;10.40;;;5.68;;
18144;SDS011;14857;41.200;-8.326;2022-09-09T14:34:00;16.38;;;6.38;;
18144;SDS011;14857;41.200;-8.326;2022-09-09T14:36:29;11.63;;;7.05;;
18144;SDS011;14857;41.200;-8.326;2022-09-09T14:38:58;10.40;;;5.95;;
18144;SDS011;14857;41.200;-8.326;2022-09-09T14:41:27;13.02;;;6.10;;
18144;SDS011;14857;41.200;-8.326;2022-09-09T14:43:56;14.82;;;6.57;;
18144;SDS011;14857;41.200;-8.326;2022-09-09T14:46:26;12.18;;;6.35;;
18144;SDS011;14857;41.200;-8.326;2022-09-09T14:48:55;13.90;;;5.97;;
18144;SDS011;14857;41.200;-8.326;2022-09-09T14:51:24;12.52;;;6.38;;
18144;SDS011;14857;41.200;-8.326;2022-09-09T14:53:54;13.63;;;6.35;;
18144;SDS011;14857;41.200;-8.326;2022-09-09T14:56:25;11.93;;;5.82;;
18144;SDS011;14857;41.200;-8.326;2022-09-09T14:58:57;13.25;;;6.78;;
18144;SDS011;14857;41.200;-8.326;2022-09-09T15:01:29;11.00;;;5.95;;
18144;SDS011;14857;41.200;-8.326;2022-09-09T15:04:00;10.77;;;6.07;;
18144;SDS011;14857;41.200;-8.326;2022-09-09T15:06:31;10.95;;;6.43;;
18144;SDS011;14857;41.200;-8.326;2022-09-09T15:09:03;10.77;;;5.78;;
18144;SDS011;14857;41.200;-8.326;2022-09-09T15:11:33;9.18;;;4.95;;
18144;SDS011;14857;41.200;-8.326;2022-09-09T15:14:05;12.18;;;6.10;;
18144;SDS011;14857;41.200;-8.326;2022-09-09T15:16:35;11.93;;;5.78;;
18144;SDS011;14857;41.200;-8.326;2022-09-09T15:19:04;9.57;;;5.20;;